Time;durP1;ratioP1;P1;durP2;ratioP2;P2;SDS_P1;SDS_P2;PMS_P1;PMS_P2;Temp;Humidity;BMP_temperature;BMP_pressure;BME280_temperature;BME280_humidity;BME280_pressure;Samples;Min_cycle;Max_cycle;Signal;HPM_P1;HPM_P2
2024/03/31 00:01:32;;;;;;;32.20;6.13;;;;;;;17.31;47.05;98734.69;5041419;27;99917;-86
2024/03/31 00:03:58;;;;;;;38.45;6.38;;;;;;;17.39;46.80;98739.31;5037417;27;96755;-86
2024/03/31 00:06:23;;;;;;;35.88;5.50;;;;;;;17.30;46.84;98729.50;5038216;27;96518;-87
2024/03/31 00:08:49;;;;;;;33.95;6.10;;;;;;;17.19;47.12;98722.47;5037954;27;101857;-87
2024/03/31 00:11:14;;;;;;;38.00;6.35;;;;;;;17.15;47.36;98724.56;5020984;27;101345;-87
2024/03/31 00:13:40;;;;;;;26.75;5.97;;;;;;;17.13;47.14;98710.63;5038355;27;96511;-87
2024/03/31 00:16:06;;;;;;;35.97;5.53;;;;;;;17.15;47.22;98707.81;5021113;27;96565;-87
2024/03/31 00:18:32;;;;;;;35.10;6.68;;;;;;;17.08;47.33;98694.28;5037564;27;100539;-87
2024/03/31 00:20:58;;;;;;;31.08;6.50;;;;;;;17.11;47.06;98693.16;5037305;27;101092;-86
2024/03/31 00:23:24;;;;;;;31.10;5.05;;;;;;;17.15;46.99;98694.56;5054393;27;96697;-86
2024/03/31 00:25:59;;;;;;;31.30;4.65;;;;;;;17.14;47.08;98691.09;5054903;27;96826;-86
2024/03/31 00:28:25;;;;;;;37.70;4.85;;;;;;;17.18;46.95;98686.34;5055771;27;98492;-86
2024/03/31 00:30:57;;;;;;;38.25;5.75;;;;;;;17.10;46.80;98684.34;5021076;27;100993;-87
2024/03/31 00:33:23;;;;;;;32.50;4.88;;;;;;;17.12;46.90;98674.47;5054835;27;96518;-87
2024/03/31 00:35:56;;;;;;;44.17;6.45;;;;;;;17.12;47.02;98681.59;5037627;27;96918;-87
2024/03/31 00:38:21;;;;;;;32.58;6.03;;;;;;;17.16;46.96;98681.19;5037261;27;101592;-86
2024/03/31 00:40:47;;;;;;;29.02;5.25;;;;;;;17.14;47.00;98691.09;5037542;27;101193;-87
2024/03/31 00:43:13;;;;;;;34.63;5.22;;;;;;;17.15;46.85;98681.31;5054284;27;96582;-87
2024/03/31 00:45:40;;;;;;;38.85;6.05;;;;;;;17.12;46.85;98685.06;5020685;27;96916;-86
2024/03/31 00:48:06;;;;;;;26.23;4.50;;;;;;;17.06;46.66;98677.66;5053566;27;98121;-87
2024/03/31 00:50:32;;;;;;;27.27;4.82;;;;;;;17.09;46.77;98668.59;5037277;27;99762;-86
2024/03/31 00:52:59;;;;;;;31.98;5.35;;;;;;;17.06;46.83;98674.16;5037830;27;96610;-87
2024/03/31 00:55:24;;;;;;;25.38;4.85;;;;;;;17.00;46.76;98664.09;5020829;27;96849;-86
2024/03/31 00:57:50;;;;;;;27.05;4.97;;;;;;;17.07;47.15;98675.84;5037202;27;98195;-87
2024/03/31 01:00:19;;;;;;;31.70;4.47;;;;;;;17.12;46.70;98669.16;5020477;27;100242;-86
2024/03/31 01:02:45;;;;;;;26.05;4.88;;;;;;;17.12;46.37;98663.84;5037747;27;96563;-87
2024/03/31 01:05:11;;;;;;;31.40;4.75;;;;;;;17.12;46.19;98674.47;5037477;27;96988;-87
2024/03/31 01:07:36;;;;;;;21.08;5.00;;;;;;;17.11;46.58;98670.16;5036894;27;100994;-86
2024/03/31 01:10:03;;;;;;;40.85;6.15;;;;;;;17.05;46.52;98662.72;5036938;27;101305;-86
2024/03/31 01:12:30;;;;;;;22.98;4.95;;;;;;;17.03;46.72;98658.53;5036588;27;96732;-86
2024/03/31 01:14:56;;;;;;;28.08;6.00;;;;;;;16.97;46.48;98655.44;5037469;27;96820;-87
2024/03/31 01:17:22;;;;;;;31.75;4.93;;;;;;;16.91;46.72;98671.88;5036846;27;101505;-86
2024/03/31 01:19:48;;;;;;;25.65;4.97;;;;;;;16.98;47.00;98667.69;5036741;27;101090;-87
2024/03/31 01:22:14;;;;;;;32.20;5.40;;;;;;;17.04;46.88;98674.28;5037296;27;96540;-87
2024/03/31 01:24:39;;;;;;;26.35;5.95;;;;;;;17.06;46.70;98680.31;5020524;27;96825;-86
2024/03/31 01:27:04;;;;;;;37.75;6.43;;;;;;;17.07;46.68;98675.84;5054081;27;98154;-87
2024/03/31 01:29:30;;;;;;;32.20;5.30;;;;;;;17.00;46.64;98675.53;5037325;27;98370;-87
2024/03/31 01:31:55;;;;;;;33.53;5.75;;;;;;;16.75;47.06;98674.97;5037076;27;96638;-87
2024/03/31 01:34:21;;;;;;;34.33;5.30;;;;;;;16.68;47.48;98676.44;5036860;27;96937;-87
2024/03/31 01:36:47;;;;;;;32.58;6.28;;;;;;;16.58;47.45;98674.72;5036034;27;99879;-86
2024/03/31 01:39:14;;;;;;;36.20;6.85;;;;;;;16.59;47.30;98671.94;5036934;27;97499;-87
2024/03/31 01:41:40;;;;;;;37.65;6.97;;;;;;;16.62;47.47;98671.69;5037200;27;96732;-87
2024/03/31 01:44:06;;;;;;;27.17;5.13;;;;;;;16.43;47.63;98674.19;5055266;27;96730;-87
2024/03/31 01:46:31;;;;;;;42.70;5.50;;;;;;;16.30;47.75;98671.75;5053881;27;98318;-87
2024/03/31 01:48:57;;;;;;;31.02;5.88;;;;;;;16.12;48.50;98671.47;5036554;27;101141;-86
2024/03/31 01:51:23;;;;;;;36.55;6.10;;;;;;;16.01;48.45;98668.88;5036895;27;96648;-87
2024/03/31 01:53:48;;;;;;;35.92;5.55;;;;;;;15.99;48.61;98673.44;5037663;27;96654;-87
2024/03/31 01:56:14;;;;;;;28.50;5.57;;;;;;;15.93;48.74;98666.00;5053679;27;96949;-87
2024/03/31 01:58:40;;;;;;;33.03;4.60;;;;;;;15.89;48.54;98660.16;5053347;27;101504;-86
2024/03/31 02:01:05;;;;;;;37.38;6.18;;;;;;;15.98;48.35;98675.25;5039013;27;96628;-87
2024/03/31 02:03:31;;;;;;;42.72;7.70;;;;;;;15.99;48.13;98658.41;5039663;27;96868;-87
2024/03/31 02:05:56;;;;;;;31.98;5.03;;;;;;;16.03;48.24;98659.00;5039630;27;100800;-87
2024/03/31 02:08:22;;;;;;;39.65;6.03;;;;;;;16.04;48.14;98656.22;5039773;27;100436;-87
2024/03/31 02:10:47;;;;;;;32.75;6.03;;;;;;;16.21;47.85;98668.06;5040263;27;96514;-87
2024/03/31 02:13:13;;;;;;;35.30;5.93;;;;;;;16.28;47.94;98658.63;5023090;27;97070;-87
2024/03/31 02:15:43;;;;;;;39.03;6.53;;;;;;;16.28;48.00;98666.56;5039791;27;101467;-85
2024/03/31 02:18:09;;;;;;;30.77;5.18;;;;;;;16.26;48.06;98662.38;5039893;27;98409;-85
2024/03/31 02:20:35;;;;;;;36.58;5.53;;;;;;;16.23;47.81;98668.78;5039789;27;96544;-87
2024/03/31 02:23:00;;;;;;;24.13;5.47;;;;;;;16.20;48.05;98676.13;5057234;27;96678;-88
2024/03/31 02:25:25;;;;;;;19.80;4.93;;;;;;;16.25;47.77;98677.41;5057284;27;97448;-86
2024/03/31 02:27:51;;;;;;;37.58;7.25;;;;;;;16.25;48.01;98681.88;5022484;27;101229;-87
2024/03/31 02:30:17;;;;;;;27.35;6.35;;;;;;;16.15;47.86;98673.03;5039753;27;96570;-87
2024/03/31 02:32:42;;;;;;;30.38;5.45;;;;;;;16.11;48.29;98695.41;5039506;27;96926;-87
2024/03/31 02:35:08;;;;;;;24.83;3.65;;;;;;;16.01;48.42;98687.41;5039309;27;101082;-86
2024/03/31 02:37:33;;;;;;;31.00;5.15;;;;;;;15.97;48.31;98691.25;5039168;27;100179;-87
2024/03/31 02:39:59;;;;;;;29.02;4.53;;;;;;;15.84;49.07;98684.31;5039619;27;96529;-87
2024/03/31 02:42:24;;;;;;;22.55;4.78;;;;;;;15.90;48.99;98687.44;5040068;27;96978;-86
2024/03/31 02:44:50;;;;;;;34.28;5.22;;;;;;;15.78;49.47;98684.00;5022376;27;101500;-87
2024/03/31 02:47:15;;;;;;;30.63;4.38;;;;;;;15.72;49.58;98682.69;5039040;27;100682;-87
2024/03/31 02:49:41;;;;;;;22.85;4.93;;;;;;;15.81;49.39;98676.63;5038910;27;96595;-87
2024/03/31 02:52:09;;;;;;;21.25;4.93;;;;;;;15.82;49.28;98680.13;5023269;27;97043;-87
2024/03/31 02:54:36;;;;;;;26.50;6.70;;;;;;;15.82;49.39;98680.13;5039185;27;101321;-87
2024/03/31 02:57:01;;;;;;;29.38;5.05;;;;;;;15.84;49.21;98673.75;5021815;27;101492;-87
2024/03/31 02:59:29;;;;;;;32.83;6.57;;;;;;;15.78;49.38;98678.69;5039521;27;96702;-86
2024/03/31 03:01:55;;;;;;;18.30;3.80;;;;;;;15.77;49.49;98669.94;5039364;27;96839;-87
2024/03/31 03:04:20;;;;;;;21.63;4.15;;;;;;;15.92;49.30;98670.47;5055505;27;100046;-87
2024/03/31 03:06:47;;;;;;;17.63;5.35;;;;;;;15.98;49.03;98663.84;5023094;27;96676;-88
2024/03/31 03:09:13;;;;;;;27.17;4.55;;;;;;;16.05;48.98;98655.25;5022501;27;96541;-88
2024/03/31 03:11:38;;;;;;;22.65;4.43;;;;;;;15.91;49.20;98652.06;5022278;27;96835;-87
2024/03/31 03:14:04;;;;;;;30.08;5.07;;;;;;;15.78;49.49;98653.06;5038542;27;98326;-88
2024/03/31 03:16:32;;;;;;;28.73;4.70;;;;;;;15.85;49.61;98648.13;5055515;27;100626;-87
2024/03/31 03:18:57;;;;;;;26.77;4.38;;;;;;;15.82;49.76;98651.00;5039136;27;96572;-86
2024/03/31 03:21:22;;;;;;;33.55;4.80;;;;;;;15.78;49.90;98655.72;5056325;27;96921;-87
2024/03/31 03:23:48;;;;;;;27.42;5.18;;;;;;;15.77;49.89;98658.50;5038932;27;98145;-87
2024/03/31 03:26:14;;;;;;;22.40;3.55;;;;;;;15.78;50.30;98654.88;5022024;27;100405;-87
2024/03/31 03:28:40;;;;;;;22.80;4.75;;;;;;;15.82;50.05;98659.81;5038782;27;96757;-88
2024/03/31 03:31:06;;;;;;;20.48;4.80;;;;;;;15.83;49.97;98658.84;5039377;27;96827;-87
2024/03/31 03:33:33;;;;;;;26.55;4.90;;;;;;;15.85;50.05;98661.34;5038442;27;99897;-87
2024/03/31 03:36:03;;;;;;;29.73;5.35;;;;;;;15.87;49.91;98653.28;5038445;27;99974;-86
2024/03/31 03:38:29;;;;;;;24.57;3.87;;;;;;;15.73;50.17;98647.31;5038552;27;96665;-87
2024/03/31 03:40:55;;;;;;;34.60;5.35;;;;;;;15.80;49.75;98634.44;5038728;27;96764;-87
2024/03/31 03:43:23;;;;;;;28.55;5.70;;;;;;;15.60;50.51;98634.22;5038626;27;101038;-87
2024/03/31 03:45:53;;;;;;;18.50;3.63;;;;;;;15.46;50.81;98629.22;5022911;27;101274;-87
2024/03/31 03:48:19;;;;;;;27.02;4.25;;;;;;;15.23;51.25;98633.72;5038566;27;97091;-87
2024/03/31 03:50:44;;;;;;;20.65;4.43;;;;;;;15.28;51.19;98625.44;5038818;27;96561;-87
2024/03/31 03:53:10;;;;;;;24.48;5.10;;;;;;;15.34;50.97;98624.94;5021450;27;100461;-88
2024/03/31 03:55:35;;;;;;;27.08;3.88;;;;;;;15.33;50.90;98634.66;5021830;27;101335;-87
2024/03/31 03:58:01;;;;;;;34.63;5.95;;;;;;;15.27;50.70;98631.66;5055301;27;96634;-88
2024/03/31 04:00:26;;;;;;;36.75;5.13;;;;;;;15.15;50.90;98628.19;5021675;27;96954;-87
2024/03/31 04:02:52;;;;;;;22.92;4.63;;;;;;;15.33;50.72;98632.03;5037329;27;101705;-86
2024/03/31 04:05:18;;;;;;;27.52;4.38;;;;;;;15.43;50.12;98623.34;5021061;27;101779;-87
2024/03/31 04:07:49;;;;;;;39.85;7.40;;;;;;;15.43;50.21;98621.53;5037924;27;96695;-88
2024/03/31 04:10:16;;;;;;;31.80;5.97;;;;;;;15.35;50.01;98630.06;5038299;27;96741;-87
2024/03/31 04:12:41;;;;;;;26.10;5.20;;;;;;;15.27;50.59;98626.38;5021113;27;100490;-88
2024/03/31 04:15:07;;;;;;;25.58;4.95;;;;;;;15.16;50.63;98620.16;5037918;27;101414;-88
2024/03/31 04:17:34;;;;;;;28.00;4.70;;;;;;;15.14;50.50;98622.06;5021371;27;96620;-88
2024/03/31 04:20:00;;;;;;;47.78;7.15;;;;;;;15.11;50.48;98624.94;5038917;27;96877;-87
2024/03/31 04:22:26;;;;;;;29.80;5.25;;;;;;;15.10;51.06;98628.56;5020555;27;100424;-88
2024/03/31 04:24:51;;;;;;;31.80;4.40;;;;;;;15.09;50.76;98626.88;5021120;27;100152;-88
2024/03/31 04:27:17;;;;;;;31.20;4.40;;;;;;;15.18;50.45;98627.94;5037471;27;96766;-88
2024/03/31 04:29:43;;;;;;;44.35;7.30;;;;;;;15.25;50.49;98629.16;5037983;27;96768;-89
2024/03/31 04:32:10;;;;;;;34.10;4.43;;;;;;;15.27;50.43;98626.38;5037666;27;101859;-88
2024/03/31 04:34:36;;;;;;;26.33;4.85;;;;;;;15.45;50.14;98626.72;5037748;27;100309;-89
2024/03/31 04:37:01;;;;;;;35.28;6.28;;;;;;;15.52;50.02;98631.38;5037823;27;96549;-86
2024/03/31 04:39:27;;;;;;;33.92;4.97;;;;;;;15.41;50.08;98628.75;5037825;27;96792;-85
2024/03/31 04:41:53;;;;;;;31.13;4.97;;;;;;;15.43;49.92;98626.81;5020267;27;101158;-85
2024/03/31 04:44:19;;;;;;;37.63;5.60;;;;;;;15.37;50.48;98638.72;5037281;27;101478;-85
2024/03/31 04:46:49;;;;;;;36.38;7.32;;;;;;;15.40;50.59;98638.47;5037099;27;96519;-85
2024/03/31 04:49:16;;;;;;;29.52;4.25;;;;;;;15.44;50.23;98635.59;5037615;27;96536;-85
2024/03/31 04:51:41;;;;;;;26.60;5.75;;;;;;;15.45;50.38;98632.00;5036445;27;98119;-86
2024/03/31 04:54:07;;;;;;;43.42;5.90;;;;;;;15.44;50.23;98620.56;5036659;27;100990;-85
2024/03/31 04:56:32;;;;;;;37.83;5.75;;;;;;;15.43;50.35;98621.53;5036897;27;96656;-85
2024/03/31 04:58:58;;;;;;;32.40;5.28;;;;;;;15.50;50.22;98627.16;5036804;27;97017;-86
2024/03/31 05:01:24;;;;;;;26.90;5.28;;;;;;;15.52;50.10;98623.44;5036676;27;101348;-86
2024/03/31 05:03:51;;;;;;;42.92;5.25;;;;;;;15.60;51.21;98631.59;5036426;27;101703;-89
2024/03/31 05:06:17;;;;;;;29.00;5.07;;;;;;;15.62;50.34;98634.97;5037714;27;96532;-90
2024/03/31 05:08:42;;;;;;;34.67;5.50;;;;;;;15.65;49.89;98638.28;5021365;27;96816;-90
2024/03/31 05:11:08;;;;;;;22.80;4.78;;;;;;;15.57;50.01;98645.06;5037054;27;101263;-89
2024/03/31 05:13:33;;;;;;;20.50;5.45;;;;;;;15.62;49.95;98642.88;5020380;27;101211;-90
2024/03/31 05:16:07;;;;;;;25.95;4.15;;;;;;;15.51;50.20;98629.69;5037863;27;96787;-90
2024/03/31 05:18:32;;;;;;;19.83;5.20;;;;;;;15.42;50.42;98645.44;5020700;27;96916;-90
2024/03/31 05:21:01;;;;;;;35.47;6.28;;;;;;;15.44;50.68;98625.84;5037424;27;100722;-90
2024/03/31 05:23:28;;;;;;;27.35;5.50;;;;;;;15.53;50.37;98622.50;5037091;27;100574;-88
2024/03/31 05:25:55;;;;;;;27.65;6.18;;;;;;;15.36;50.76;98634.41;5020830;27;96661;-90
2024/03/31 05:28:21;;;;;;;28.20;4.60;;;;;;;15.36;50.84;98630.94;5037423;27;96849;-91
2024/03/31 05:30:47;;;;;;;30.23;6.20;;;;;;;15.46;50.34;98623.94;5037045;27;101172;-90
2024/03/31 05:33:13;;;;;;;32.50;4.72;;;;;;;15.55;50.49;98636.41;5036979;27;101318;-91
2024/03/31 05:36:05;;;;;;;27.60;4.93;;;;;;;15.49;50.42;98625.50;5054267;27;96956;-90
2024/03/31 05:38:31;;;;;;;26.52;5.07;;;;;;;15.57;50.39;98618.63;5040773;27;96849;-88
2024/03/31 05:41:03;;;;;;;43.00;6.50;;;;;;;15.53;50.29;98632.19;5025158;27;100920;-89
2024/03/31 05:43:29;;;;;;;37.65;6.22;;;;;;;15.48;50.84;98624.66;5023663;27;101015;-87
2024/03/31 05:45:55;;;;;;;33.22;5.88;;;;;;;15.48;50.78;98619.38;5023923;27;96545;-89
2024/03/31 05:48:21;;;;;;;25.80;5.03;;;;;;;15.59;50.70;98613.19;5023536;27;96983;-89
2024/03/31 05:50:50;;;;;;;31.83;5.70;;;;;;;15.65;50.21;98614.50;5057059;27;101100;-89
2024/03/31 05:53:16;;;;;;;33.30;5.03;;;;;;;15.79;49.75;98609.78;5057498;27;98422;-90
2024/03/31 05:55:42;;;;;;;36.58;5.63;;;;;;;15.90;49.68;98608.06;5023623;27;96527;-87
2024/03/31 05:58:07;;;;;;;25.40;5.18;;;;;;;15.97;49.40;98612.72;5023686;27;96993;-87
2024/03/31 06:00:33;;;;;;;26.25;4.80;;;;;;;16.11;49.16;98614.19;5039692;27;100686;-88
2024/03/31 06:02:59;;;;;;;34.15;7.63;;;;;;;16.18;48.77;98614.53;5057599;27;97943;-88
2024/03/31 06:05:26;;;;;;;30.55;5.75;;;;;;;16.36;48.62;98607.69;5043265;27;96687;-90
2024/03/31 06:07:51;;;;;;;35.10;5.43;;;;;;;16.41;48.42;98612.59;5026877;27;96570;-86
2024/03/31 06:10:17;;;;;;;36.45;6.28;;;;;;;16.58;48.38;98613.78;5026274;27;101956;-90
2024/03/31 06:12:43;;;;;;;39.88;7.10;;;;;;;16.57;48.09;98610.31;5026615;27;100366;-86
2024/03/31 06:15:09;;;;;;;29.75;5.93;;;;;;;16.81;47.36;98599.41;5025937;27;96582;-79
2024/03/31 06:17:36;;;;;;;29.17;6.00;;;;;;;16.88;47.42;98595.28;5025895;27;96944;-81
2024/03/31 06:20:03;;;;;;;39.60;6.72;;;;;;;16.86;47.80;98605.16;5025157;27;101219;-76
2024/03/31 06:22:29;;;;;;;27.13;5.40;;;;;;;16.84;47.54;98599.19;5042557;27;101080;-76
2024/03/31 06:24:55;;;;;;;36.75;5.63;;;;;;;16.96;47.02;98594.63;5042149;27;96601;-78
2024/03/31 06:27:21;;;;;;;30.33;5.53;;;;;;;16.95;47.38;98608.81;5042330;27;96970;-78
2024/03/31 06:29:48;;;;;;;32.15;6.38;;;;;;;16.99;46.94;98602.31;5041399;27;101487;-78
2024/03/31 06:32:14;;;;;;;27.15;5.00;;;;;;;17.27;46.67;98608.63;5041937;27;100833;-78
2024/03/31 06:34:39;;;;;;;23.05;5.47;;;;;;;17.71;46.05;98601.16;5042097;27;96787;-78
2024/03/31 06:37:06;;;;;;;44.72;6.60;;;;;;;17.98;45.53;98597.84;5042240;27;96614;-78
2024/03/31 06:39:32;;;;;;;32.00;6.25;;;;;;;18.33;44.93;98605.22;5041661;27;101826;-78
2024/03/31 06:41:58;;;;;;;31.95;6.47;;;;;;;18.56;44.33;98602.22;5041669;27;100988;-78
2024/03/31 06:44:26;;;;;;;38.70;6.43;;;;;;;18.47;43.65;98603.06;5058840;27;96598;-78
2024/03/31 06:46:51;;;;;;;39.22;6.97;;;;;;;18.50;44.04;98594.81;5025082;27;96906;-79
2024/03/31 06:49:17;;;;;;;32.88;5.47;;;;;;;18.22;44.38;98597.41;5058616;27;98197;-78
2024/03/31 06:51:42;;;;;;;35.80;6.88;;;;;;;18.22;44.92;98586.78;5041396;27;101111;-79
2024/03/31 06:54:08;;;;;;;37.05;6.75;;;;;;;18.18;44.82;98592.50;5041328;27;96639;-78
2024/03/31 06:56:34;;;;;;;42.95;5.90;;;;;;;18.16;44.86;98591.81;5041626;27;96990;-78
2024/03/31 06:58:59;;;;;;;36.50;6.13;;;;;;;18.00;45.11;98590.56;5041395;27;101077;-78
2024/03/31 07:01:25;;;;;;;41.15;7.22;;;;;;;17.80;45.33;98581.81;5024693;27;101083;-78
2024/03/31 07:03:51;;;;;;;27.98;5.18;;;;;;;17.81;45.70;98586.13;5041610;27;96803;-78
2024/03/31 07:06:16;;;;;;;43.50;7.70;;;;;;;17.91;45.70;98577.31;5041698;27;96963;-78
2024/03/31 07:08:44;;;;;;;37.97;6.60;;;;;;;17.90;46.20;98570.34;5041658;27;101600;-78
2024/03/31 07:11:10;;;;;;;43.25;6.70;;;;;;;17.86;45.96;98572.44;5041563;27;100930;-78
2024/03/31 07:13:36;;;;;;;34.38;5.35;;;;;;;18.31;45.19;98582.44;5041365;27;96585;-78
2024/03/31 07:16:01;;;;;;;41.53;7.10;;;;;;;18.23;45.51;98567.19;5041402;27;96969;-78
2024/03/31 07:18:27;;;;;;;32.92;6.45;;;;;;;18.26;45.52;98574.03;5023792;27;101534;-79
2024/03/31 07:20:52;;;;;;;29.20;6.07;;;;;;;18.28;46.06;98588.03;5041065;27;100958;-78
2024/03/31 07:23:18;;;;;;;32.95;5.88;;;;;;;18.52;45.49;98579.56;5041245;27;96544;-79
2024/03/31 07:25:44;;;;;;;34.08;5.75;;;;;;;18.60;45.48;98574.38;5041350;27;96936;-78
2024/03/31 07:28:09;;;;;;;46.15;6.18;;;;;;;18.57;45.64;98582.63;5058364;27;97456;-78
2024/03/31 07:30:40;;;;;;;36.85;7.13;;;;;;;18.75;45.55;98582.72;5041531;27;101050;-78
2024/03/31 07:33:05;;;;;;;36.47;6.45;;;;;;;19.10;44.87;98578.50;5058258;27;96580;-78
2024/03/31 07:35:31;;;;;;;32.22;5.65;;;;;;;19.19;44.82;98570.47;5041633;27;96916;-78
2024/03/31 07:37:56;;;;;;;33.95;5.47;;;;;;;19.42;44.83;98570.03;5040869;27;100393;-78
2024/03/31 07:40:22;;;;;;;31.63;6.22;;;;;;;20.12;43.65;98564.88;5023944;27;101141;-79
2024/03/31 07:42:47;;;;;;;34.65;7.93;;;;;;;20.76;41.90;98544.94;5040690;27;96556;-79
2024/03/31 07:45:13;;;;;;;32.70;7.10;;;;;;;21.63;40.93;98542.88;5058547;27;96776;-79
2024/03/31 07:47:38;;;;;;;35.22;6.65;;;;;;;21.42;40.76;98538.00;5040972;27;98066;-79
2024/03/31 07:50:04;;;;;;;44.53;7.68;;;;;;;20.94;41.74;98528.88;5057788;27;97396;-79
2024/03/31 07:52:29;;;;;;;36.75;7.97;;;;;;;20.63;41.97;98531.25;5040923;27;96632;-79
2024/03/31 07:54:55;;;;;;;45.80;8.52;;;;;;;20.86;41.38;98526.16;5057992;27;96901;-78
2024/03/31 07:57:20;;;;;;;36.78;7.03;;;;;;;21.33;40.48;98528.28;5057155;27;97503;-79
2024/03/31 07:59:46;;;;;;;39.85;6.78;;;;;;;23.27;37.00;98523.78;5057979;27;97599;-79
2024/03/31 08:02:12;;;;;;;35.28;5.85;;;;;;;23.57;36.23;98531.97;5058081;27;96579;-80
2024/03/31 08:04:39;;;;;;;41.28;7.03;;;;;;;22.74;37.04;98531.53;5040082;27;96945;-79
2024/03/31 08:07:04;;;;;;;30.30;5.75;;;;;;;22.49;37.87;98530.81;5056800;27;101506;-79
2024/03/31 08:09:30;;;;;;;46.85;7.15;;;;;;;23.08;36.82;98530.41;5040168;27;101140;-79
2024/03/31 08:11:55;;;;;;;35.88;5.93;;;;;;;22.97;37.32;98525.44;5057447;27;96506;-79
2024/03/31 08:14:21;;;;;;;45.72;6.40;;;;;;;22.80;37.05;98527.31;5076273;27;96763;-79
2024/03/31 08:16:46;;;;;;;35.80;6.13;;;;;;;23.61;36.23;98536.75;5075661;27;97499;-79
2024/03/31 08:19:12;;;;;;;32.03;7.35;;;;;;;24.17;35.38;98523.94;5057383;27;97472;-79
2024/03/31 08:21:40;;;;;;;36.20;6.38;;;;;;;24.47;34.57;98525.84;5040281;27;96672;-80
2024/03/31 08:24:06;;;;;;;53.45;7.85;;;;;;;24.52;34.85;98515.38;5040832;27;96935;-79
2024/03/31 08:26:33;;;;;;;27.50;6.40;;;;;;;24.97;34.71;98506.28;5040084;27;101003;-79
2024/03/31 08:28:59;;;;;;;31.75;6.22;;;;;;;26.37;32.71;98508.41;5040215;27;97970;-80
2024/03/31 08:31:24;;;;;;;33.90;7.20;;;;;;;26.73;31.78;98504.69;5023107;27;96608;-79
2024/03/31 08:33:50;;;;;;;30.40;6.50;;;;;;;26.60;30.68;98501.97;5057483;27;96867;-80
2024/03/31 08:36:15;;;;;;;42.97;8.63;;;;;;;27.13;30.03;98487.88;5040316;27;97373;-80
2024/03/31 08:38:41;;;;;;;49.97;6.97;;;;;;;28.44;28.35;98505.19;5039691;27;100928;-80
2024/03/31 08:41:10;;;;;;;33.50;6.75;;;;;;;28.93;27.44;98500.28;5040496;27;96605;-80
2024/03/31 08:43:40;;;;;;;44.17;6.82;;;;;;;30.23;25.83;98502.56;5040047;27;96843;-81
2024/03/31 08:46:06;;;;;;;41.25;6.70;;;;;;;31.02;24.50;98509.00;5039792;27;101525;-80
2024/03/31 08:48:32;;;;;;;30.50;6.75;;;;;;;31.32;24.27;98502.75;5040115;27;101010;-81
2024/03/31 08:50:58;;;;;;;28.00;6.90;;;;;;;32.18;24.16;98492.47;5039973;27;96660;-81
2024/03/31 08:53:25;;;;;;;29.45;5.93;;;;;;;33.64;22.13;98497.66;5057221;27;96872;-81
2024/03/31 08:55:50;;;;;;;28.95;6.63;;;;;;;33.86;21.88;98495.03;5022405;27;101144;-81
2024/03/31 08:58:16;;;;;;;35.17;7.18;;;;;;;34.05;21.44;98502.97;5039868;27;98338;-81
2024/03/31 09:00:42;;;;;;;53.47;7.78;;;;;;;33.00;21.17;98505.97;5057058;27;96588;-80
2024/03/31 09:03:08;;;;;;;38.42;7.68;;;;;;;33.04;21.53;98496.25;5056808;27;96835;-81
2024/03/31 09:05:35;;;;;;;34.50;5.63;;;;;;;34.22;20.84;98490.97;5039571;27;101123;-81
2024/03/31 09:08:01;;;;;;;42.00;6.53;;;;;;;35.43;19.68;98488.38;5056565;27;97637;-81
2024/03/31 09:10:27;;;;;;;44.67;7.53;;;;;;;33.66;20.21;98500.97;5043050;27;96649;-81
2024/03/31 09:12:52;;;;;;;41.40;6.75;;;;;;;33.23;21.17;98482.47;5043930;27;96858;-81
2024/03/31 09:15:18;;;;;;;41.78;7.53;;;;;;;33.35;21.03;98489.50;5026309;27;101391;-82
2024/03/31 09:17:43;;;;;;;49.03;7.10;;;;;;;33.16;20.98;98493.47;5043479;27;97270;-81
2024/03/31 09:20:10;;;;;;;42.85;6.65;;;;;;;33.71;20.38;98486.59;5025940;27;96586;-81
2024/03/31 09:22:37;;;;;;;38.55;6.30;;;;;;;33.71;20.50;98500.22;5043356;27;96913;-80
2024/03/31 09:25:03;;;;;;;46.63;9.15;;;;;;;34.34;20.09;98514.56;5042876;27;101206;-81
2024/03/31 09:27:28;;;;;;;50.67;7.43;;;;;;;34.72;20.21;98500.13;5060186;27;97390;-81
2024/03/31 09:29:57;;;;;;;49.78;7.40;;;;;;;34.18;19.99;98502.59;5043290;27;96679;-81
2024/03/31 09:32:23;;;;;;;42.97;6.80;;;;;;;34.34;20.08;98500.94;5060194;27;96802;-81
2024/03/31 09:34:48;;;;;;;49.05;7.38;;;;;;;33.41;20.56;98492.31;5059670;27;101540;-81
2024/03/31 09:37:15;;;;;;;61.72;8.60;;;;;;;33.90;20.36;98488.03;5043049;27;101050;-81
2024/03/31 09:39:40;;;;;;;41.05;7.28;;;;;;;35.18;19.18;98494.44;5042822;27;96747;-81
2024/03/31 09:42:07;;;;;;;40.72;7.15;;;;;;;35.82;18.79;98483.59;5042883;27;96921;-80
2024/03/31 09:44:33;;;;;;;35.33;7.22;;;;;;;34.80;19.31;98496.16;5059509;27;97674;-81
2024/03/31 09:46:59;;;;;;;48.53;7.53;;;;;;;33.90;20.15;98503.53;5059835;27;97901;-81
2024/03/31 09:49:28;;;;;;;50.00;8.18;;;;;;;33.67;20.25;98508.03;5042815;27;96577;-81
2024/03/31 09:51:59;;;;;;;51.42;8.18;;;;;;;31.96;21.83;98503.06;5060009;27;96833;-81
2024/03/31 09:54:48;;;;;;;45.53;8.77;;;;;;;31.58;21.92;98496.16;5025745;27;100951;-81
2024/03/31 09:57:15;;;;;;;49.80;11.45;;;;;;;30.03;23.21;98504.59;5042437;27;101212;-81
2024/03/31 09:59:44;;;;;;;67.05;11.00;;;;;;;28.71;24.43;98509.69;5059316;27;96707;-80
2024/03/31 10:02:13;;;;;;;56.95;9.88;;;;;;;27.44;25.59;98496.28;5060027;27;96943;-80
2024/03/31 10:04:41;;;;;;;74.00;10.60;;;;;;;26.70;26.74;98491.66;5058526;27;97974;-81
2024/03/31 10:07:06;;;;;;;67.78;10.40;;;;;;;26.18;27.20;98485.75;5059473;27;97408;-80
2024/03/31 10:09:33;;;;;;;51.80;9.75;;;;;;;27.00;26.39;98489.50;5042039;27;96550;-80
2024/03/31 10:12:00;;;;;;;59.88;9.38;;;;;;;27.62;25.76;98486.75;5025596;27;96941;-80
2024/03/31 10:14:27;;;;;;;69.65;11.35;;;;;;;27.37;25.82;98490.03;5042053;27;100943;-80
2024/03/31 10:16:53;;;;;;;45.80;9.70;;;;;;;26.95;26.50;98478.50;5059255;27;98415;-80
2024/03/31 10:19:19;;;;;;;61.83;10.18;;;;;;;26.13;27.30;98490.06;5025737;27;96686;-80
2024/03/31 10:21:46;;;;;;;56.75;11.35;;;;;;;26.10;27.02;98485.91;5042111;27;96827;-80
2024/03/31 10:24:13;;;;;;;74.38;11.13;;;;;;;25.85;27.37;98488.19;5041808;27;101236;-80
2024/03/31 10:26:39;;;;;;;59.85;10.70;;;;;;;26.63;27.13;98488.09;5059753;27;97412;-80
2024/03/31 10:29:05;;;;;;;53.20;10.13;;;;;;;26.81;26.89;98496.47;5042228;27;96536;-80
2024/03/31 10:31:32;;;;;;;66.75;11.52;;;;;;;26.84;27.00;98487.16;5077976;27;96812;-80
2024/03/31 10:33:58;;;;;;;62.83;10.75;;;;;;;26.55;27.29;98488.25;5041282;27;100839;-80
2024/03/31 10:36:24;;;;;;;62.47;10.45;;;;;;;25.97;27.69;98493.88;5041695;27;100407;-81
2024/03/31 10:38:50;;;;;;;68.45;10.35;;;;;;;25.67;28.63;98495.88;5059207;27;96758;-80
2024/03/31 10:41:17;;;;;;;49.85;9.88;;;;;;;25.84;28.37;98502.66;5042239;27;96897;-80
2024/03/31 10:43:42;;;;;;;71.93;9.88;;;;;;;25.63;28.36;98483.84;5058928;27;98093;-81
2024/03/31 10:46:08;;;;;;;73.60;11.15;;;;;;;25.30;28.69;98478.97;5042071;27;97312;-80
2024/03/31 10:48:33;;;;;;;51.45;11.65;;;;;;;25.39;29.07;98471.63;5059227;27;96621;-80
2024/03/31 10:51:15;;;;;;;75.60;12.85;;;;;;;25.70;29.16;98471.28;5059421;27;96788;-80
2024/03/31 10:53:41;;;;;;;64.25;10.13;;;;;;;25.92;28.53;98472.97;5041839;27;98049;-80
2024/03/31 10:58:51;;;;;;;68.20;9.45;;;;;;;25.14;29.46;98465.81;5061383;27;96581;-80
2024/03/31 11:01:17;;;;;;;67.13;11.95;;;;;;;25.08;29.43;98457.47;5058553;27;96813;-80
2024/03/31 11:03:45;;;;;;;69.40;10.25;;;;;;;25.00;29.59;98465.63;5040772;27;101118;-80
2024/03/31 11:06:15;;;;;;;64.78;10.50;;;;;;;25.35;29.49;98465.00;5024618;27;100915;-80
2024/03/31 11:08:44;;;;;;;77.70;11.50;;;;;;;25.18;29.72;98457.19;5058445;27;96575;-80
2024/03/31 11:11:13;;;;;;;62.20;10.73;;;;;;;25.14;29.82;98460.44;5058845;27;96876;-80
2024/03/31 11:13:38;;;;;;;50.75;10.77;;;;;;;25.07;30.04;98463.88;5058234;27;97624;-80
2024/03/31 11:16:05;;;;;;;68.45;10.80;;;;;;;25.13;29.69;98456.06;5041654;27;100990;-80
2024/03/31 11:18:32;;;;;;;50.70;9.13;;;;;;;25.14;30.52;98452.41;5058569;27;96719;-81
2024/03/31 11:21:07;;;;;;;60.83;9.77;;;;;;;24.88;30.40;98444.84;5041335;27;96641;-80